Time;durP1;ratioP1;P1;durP2;ratioP2;P2;SDS_P1;SDS_P2;PMS_P1;PMS_P2;Temp;Humidity;BMP_temperature;BMP_pressure;BME280_temperature;BME280_humidity;BME280_pressure;Samples;Min_cycle;Max_cycle;Signal;HPM_P1;HPM_P2
2021/08/02 00:01:54;;;;;;;7.90;3.45;;;;;;;11.49;100.00;101235.66;3585597;39;20070;-61
2021/08/02 00:04:24;;;;;;;5.43;3.40;;;;;;;11.49;100.00;101235.66;3598427;39;20279;-61
2021/08/02 00:06:52;;;;;;;7.28;3.28;;;;;;;11.44;100.00;101233.34;3596005;39;20052;-61
2021/08/02 00:09:24;;;;;;;7.32;3.40;;;;;;;11.42;100.00;101242.56;3593225;39;20044;-61
2021/08/02 00:11:55;;;;;;;8.77;3.08;;;;;;;11.32;100.00;101226.31;3593262;39;20365;-61
2021/08/02 00:14:23;;;;;;;8.27;3.00;;;;;;;11.35;100.00;101231.44;3593254;39;20076;-61
2021/08/02 00:16:49;;;;;;;6.65;3.33;;;;;;;11.30;100.00;101231.00;3593031;39;20072;-61
2021/08/02 00:19:16;;;;;;;6.50;3.35;;;;;;;11.21;100.00;101228.09;3594344;39;20043;-61
2021/08/02 00:21:44;;;;;;;8.50;3.70;;;;;;;11.21;100.00;101230.78;3594738;39;20040;-61
2021/08/02 00:24:11;;;;;;;8.15;3.35;;;;;;;11.26;100.00;101226.84;3592496;39;20358;-61
2021/08/02 00:26:40;;;;;;;4.93;3.15;;;;;;;11.22;100.00;101219.03;3593733;40;20044;-61
2021/08/02 00:29:08;;;;;;;7.43;3.20;;;;;;;11.20;100.00;101217.44;3591107;39;20098;-61
2021/08/02 00:31:36;;;;;;;6.93;3.20;;;;;;;11.16;100.00;101219.56;3591607;40;20259;-61
2021/08/02 00:34:02;;;;;;;6.03;3.20;;;;;;;11.24;100.00;101218.06;3592927;39;20067;-61
2021/08/02 00:36:34;;;;;;;7.38;3.25;;;;;;;11.25;100.00;101217.03;3593060;39;20063;-61
2021/08/02 00:39:06;;;;;;;8.02;3.13;;;;;;;11.33;100.00;101215.41;3592595;39;20020;-61
2021/08/02 00:42:12;;;;;;;5.07;3.13;;;;;;;11.33;100.00;101217.25;3593300;39;20048;-61
2021/08/02 00:45:09;;;;;;;6.60;2.78;;;;;;;11.33;100.00;101212.69;3591562;39;20048;-61
2021/08/02 00:47:39;;;;;;;9.13;2.80;;;;;;;11.45;100.00;101213.47;3591029;40;20311;-61
2021/08/02 00:50:09;;;;;;;5.82;3.17;;;;;;;11.63;100.00;101204.78;3590955;39;20043;-61
2021/08/02 00:52:39;;;;;;;5.18;3.03;;;;;;;11.57;100.00;101204.34;3596015;40;20345;-61
2021/08/02 00:55:07;;;;;;;4.55;3.05;;;;;;;11.65;100.00;101205.53;3590165;39;20040;-61
2021/08/02 00:57:37;;;;;;;5.95;2.65;;;;;;;11.78;100.00;101208.84;3594759;39;20042;-61
2021/08/02 01:00:07;;;;;;;11.50;2.88;;;;;;;11.85;100.00;101207.31;3591330;39;20411;-61
2021/08/02 01:02:39;;;;;;;6.85;2.67;;;;;;;11.88;100.00;101204.34;3593112;39;20032;-61
2021/08/02 01:05:09;;;;;;;5.53;2.63;;;;;;;11.92;100.00;101205.78;3590980;39;20058;-60
2021/08/02 01:07:39;;;;;;;5.72;2.60;;;;;;;11.97;100.00;101213.50;3593233;39;20368;-60
2021/08/02 01:10:08;;;;;;;11.88;3.05;;;;;;;12.05;100.00;101215.50;3595862;39;20083;-61
2021/08/02 01:12:37;;;;;;;7.97;2.97;;;;;;;12.13;100.00;101218.38;3591769;39;20057;-61
2021/08/02 01:15:04;;;;;;;8.85;2.95;;;;;;;12.03;100.00;101212.94;3591800;39;20040;-61
2021/08/02 01:17:34;;;;;;;5.30;2.60;;;;;;;11.99;100.00;101216.91;3593790;39;20044;-61
2021/08/02 01:20:04;;;;;;;7.72;2.42;;;;;;;11.88;100.00;101220.53;3593634;39;20044;-61
2021/08/02 01:22:33;;;;;;;6.55;2.78;;;;;;;11.87;100.00;101223.34;3591762;39;20060;-61
2021/08/02 01:25:54;;;;;;;6.95;3.17;;;;;;;11.89;100.00;101234.84;3595868;39;20060;-60
2021/08/02 01:28:58;;;;;;;5.75;3.15;;;;;;;11.82;100.00;101237.25;3590771;39;20299;-61
2021/08/02 01:31:25;;;;;;;8.55;3.00;;;;;;;11.88;100.00;101234.00;3595202;39;20050;-61
2021/08/02 01:33:51;;;;;;;13.07;3.08;;;;;;;11.72;100.00;101230.97;3590541;39;20387;-61
2021/08/02 01:36:18;;;;;;;10.80;3.88;;;;;;;11.75;100.00;101230.69;3593519;40;20036;-61
2021/08/02 01:38:47;;;;;;;5.95;3.45;;;;;;;11.67;100.00;101238.56;3589594;39;20076;-61
2021/08/02 01:41:13;;;;;;;8.50;3.50;;;;;;;11.60;100.00;101237.41;3592921;40;20062;-60
2021/08/02 01:43:39;;;;;;;10.63;3.90;;;;;;;11.55;100.00;101233.25;3594955;39;20076;-61
2021/08/02 01:46:12;;;;;;;6.05;3.70;;;;;;;11.45;100.00;101245.81;3593484;39;20040;-61
2021/08/02 01:48:46;;;;;;;11.88;3.50;;;;;;;11.44;100.00;101241.44;3592940;40;20044;-61
2021/08/02 01:51:20;;;;;;;7.18;3.80;;;;;;;11.45;100.00;101242.28;3594559;39;20056;-61
2021/08/02 01:53:55;;;;;;;6.43;3.42;;;;;;;11.41;100.00;101241.72;3593663;40;20069;-61
2021/08/02 01:56:24;;;;;;;9.00;3.90;;;;;;;11.36;100.00;101241.22;3590076;39;20971;-61
2021/08/02 02:01:40;;;;;;;7.72;4.28;;;;;;;11.39;100.00;101254.44;3599788;39;20132;-61
2021/08/02 02:04:08;;;;;;;9.00;4.35;;;;;;;11.39;100.00;101260.72;3611983;39;20313;-61
2021/08/02 02:06:38;;;;;;;6.85;4.00;;;;;;;11.38;100.00;101252.72;3612606;39;20151;-61
2021/08/02 02:09:09;;;;;;;9.27;3.83;;;;;;;11.34;100.00;101259.38;3611047;39;20051;-61
2021/08/02 02:11:41;;;;;;;8.40;4.60;;;;;;;11.26;100.00;101254.63;3612528;39;20047;-61
2021/08/02 02:14:10;;;;;;;7.80;4.63;;;;;;;11.24;100.00;101258.47;3612820;39;20039;-61
2021/08/02 02:16:46;;;;;;;11.43;5.38;;;;;;;11.15;100.00;101250.16;3612884;39;20047;-61
2021/08/02 02:19:15;;;;;;;10.48;5.25;;;;;;;11.04;100.00;101253.78;3613251;39;20039;-61
2021/08/02 02:21:44;;;;;;;9.50;4.88;;;;;;;11.02;100.00;101244.13;3615276;39;20305;-61
2021/08/02 02:27:03;;;;;;;12.45;6.07;;;;;;;11.03;100.00;101251.22;3638483;22;20048;-61
2021/08/02 02:29:33;;;;;;;9.07;5.72;;;;;;;10.98;100.00;101248.03;3656297;22;20148;-60
2021/08/02 02:32:00;;;;;;;9.60;6.00;;;;;;;10.90;100.00;101245.16;3601453;39;20042;-61
2021/08/02 02:34:29;;;;;;;10.55;5.90;;;;;;;10.83;100.00;101240.25;3608940;22;20136;-61
2021/08/02 02:36:57;;;;;;;10.53;5.60;;;;;;;10.84;100.00;101241.13;3592968;39;20030;-61
2021/08/02 02:39:25;;;;;;;9.23;6.20;;;;;;;10.73;100.00;101242.00;3590022;39;20045;-61
2021/08/02 02:41:52;;;;;;;11.40;5.60;;;;;;;10.83;100.00;101242.13;3591244;39;20036;-61
2021/08/02 02:44:22;;;;;;;13.60;6.50;;;;;;;10.72;100.00;101248.41;3591220;39;20025;-61
2021/08/02 02:46:49;;;;;;;12.15;6.35;;;;;;;10.81;100.00;101242.25;3592467;39;20124;-61
2021/08/02 02:49:18;;;;;;;11.40;6.45;;;;;;;10.74;100.00;101246.44;3592777;39;20020;-61
2021/08/02 02:51:45;;;;;;;10.93;7.30;;;;;;;10.76;100.00;101249.88;3591570;39;20284;-61
2021/08/02 02:54:12;;;;;;;15.57;7.00;;;;;;;10.73;100.00;101246.56;3589940;39;20372;-61
2021/08/02 02:56:38;;;;;;;10.55;6.82;;;;;;;10.64;100.00;101238.25;3590840;39;20040;-61
2021/08/02 02:59:05;;;;;;;11.15;7.03;;;;;;;10.69;100.00;101243.28;3594248;39;20038;-61
2021/08/02 03:01:38;;;;;;;13.55;6.80;;;;;;;10.67;100.00;101250.59;3590566;39;20036;-61
2021/08/02 03:04:06;;;;;;;10.02;6.15;;;;;;;10.66;100.00;101248.91;3593139;39;20035;-61
2021/08/02 03:06:34;;;;;;;9.00;6.03;;;;;;;10.74;100.00;101249.13;3588951;40;20308;-61
2021/08/02 03:09:02;;;;;;;12.82;7.30;;;;;;;10.77;100.00;101254.25;3592703;39;20029;-61
2021/08/02 03:11:29;;;;;;;13.45;7.07;;;;;;;10.68;100.00;101252.31;3592600;39;20040;-61
2021/08/02 03:13:57;;;;;;;9.40;6.75;;;;;;;10.58;100.00;101240.59;3592482;39;20398;-61
2021/08/02 03:16:25;;;;;;;9.00;6.75;;;;;;;10.57;100.00;101257.72;3590925;39;20052;-61
2021/08/02 03:18:53;;;;;;;11.07;6.30;;;;;;;10.60;100.00;101249.41;3592214;39;20029;-61
2021/08/02 03:21:21;;;;;;;13.90;6.60;;;;;;;10.55;100.00;101248.94;3594182;39;20040;-61
2021/08/02 03:23:56;;;;;;;14.63;7.88;;;;;;;10.60;100.00;101252.09;3594774;39;20036;-61
2021/08/02 03:26:29;;;;;;;11.38;7.18;;;;;;;10.58;100.00;101246.84;3593550;39;20052;-61
2021/08/02 03:28:58;;;;;;;12.63;6.88;;;;;;;10.55;100.00;101251.63;3592815;39;20043;-61
2021/08/02 03:31:30;;;;;;;13.23;8.07;;;;;;;10.42;100.00;101249.94;3592340;39;20063;-61
2021/08/02 03:34:01;;;;;;;15.43;7.82;;;;;;;10.47;100.00;101250.41;3591190;39;20306;-61
2021/08/02 03:36:28;;;;;;;14.75;7.53;;;;;;;10.43;100.00;101250.81;3591814;39;20028;-61
2021/08/02 03:38:55;;;;;;;16.13;7.78;;;;;;;10.40;100.00;101254.59;3597203;39;20043;-61
2021/08/02 03:41:22;;;;;;;15.88;8.23;;;;;;;10.42;100.00;101258.00;3592517;39;20032;-61
2021/08/02 03:43:51;;;;;;;12.30;7.70;;;;;;;10.40;100.00;101259.97;3590928;39;20030;-61
2021/08/02 03:46:19;;;;;;;13.00;7.53;;;;;;;10.48;100.00;101262.03;3593734;39;20035;-61
2021/08/02 03:48:47;;;;;;;15.50;7.55;;;;;;;10.41;100.00;101272.47;3593524;39;20032;-61
2021/08/02 03:51:14;;;;;;;11.98;7.15;;;;;;;10.43;100.00;101272.34;3592386;39;20044;-61
2021/08/02 03:53:43;;;;;;;12.25;7.35;;;;;;;10.40;100.00;101265.34;3595701;39;20032;-61
2021/08/02 03:56:10;;;;;;;11.43;7.32;;;;;;;10.46;100.00;101272.91;3592239;39;20375;-61
2021/08/02 03:58:38;;;;;;;11.50;7.38;;;;;;;10.42;100.00;101268.75;3591861;40;20073;-61
2021/08/02 04:01:04;;;;;;;13.23;7.50;;;;;;;10.41;100.00;101266.19;3595525;40;20043;-61
2021/08/02 04:03:31;;;;;;;11.20;6.97;;;;;;;10.47;100.00;101269.25;3592707;39;20046;-61
2021/08/02 04:05:59;;;;;;;12.13;7.20;;;;;;;10.35;100.00;101275.66;3592612;39;20113;-61
2021/08/02 04:08:28;;;;;;;13.30;7.25;;;;;;;10.46;100.00;101281.00;3592978;39;20056;-61
2021/08/02 04:10:55;;;;;;;11.33;7.00;;;;;;;10.48;100.00;101279.06;3593666;39;20040;-62
2021/08/02 04:13:21;;;;;;;10.30;7.07;;;;;;;10.46;100.00;101281.00;3596045;39;20273;-61
2021/08/02 04:15:49;;;;;;;12.35;7.40;;;;;;;10.43;100.00;101283.94;3592918;39;20039;-61
2021/08/02 04:18:15;;;;;;;14.15;8.05;;;;;;;10.49;100.00;101296.88;3590834;39;20132;-61
2021/08/02 04:20:43;;;;;;;20.65;8.98;;;;;;;10.43;100.00;101291.16;3595377;40;20036;-61
2021/08/02 04:23:10;;;;;;;12.32;7.93;;;;;;;10.52;100.00;101293.94;3591651;39;20032;-61
2021/08/02 04:25:37;;;;;;;17.63;8.77;;;;;;;10.42;100.00;101290.28;3594491;39;20032;-61
2021/08/02 04:28:04;;;;;;;12.35;7.10;;;;;;;10.58;100.00;101297.13;3595714;39;20098;-61
2021/08/02 04:30:31;;;;;;;11.23;7.50;;;;;;;10.56;100.00;101294.56;3593018;39;20040;-61
2021/08/02 04:32:57;;;;;;;15.30;7.10;;;;;;;10.57;100.00;101298.09;3592040;39;20264;-61
2021/08/02 04:35:24;;;;;;;10.45;6.85;;;;;;;10.64;100.00;101297.47;3592233;39;20057;-61
2021/08/02 04:37:50;;;;;;;10.38;7.20;;;;;;;10.71;100.00;101295.16;3592477;39;20024;-61
2021/08/02 04:40:16;;;;;;;15.50;7.18;;;;;;;10.71;100.00;101289.75;3590256;39;20037;-61
2021/08/02 04:42:44;;;;;;;10.75;7.45;;;;;;;10.74;100.00;101294.03;3594706;39;20041;-62
2021/08/02 04:45:12;;;;;;;13.65;7.45;;;;;;;10.79;100.00;101291.81;3589684;39;20029;-61
2021/08/02 04:47:38;;;;;;;13.05;7.38;;;;;;;10.86;100.00;101293.00;3595026;39;20036;-61
2021/08/02 04:50:05;;;;;;;10.73;6.25;;;;;;;10.82;100.00;101292.44;3595789;39;20024;-61
2021/08/02 04:52:32;;;;;;;12.85;6.80;;;;;;;10.83;100.00;101295.97;3594799;39;20092;-61
2021/08/02 04:54:58;;;;;;;14.73;6.32;;;;;;;10.79;100.00;101303.47;3593607;39;20281;-61
2021/08/02 04:57:25;;;;;;;10.95;7.07;;;;;;;10.96;100.00;101298.50;3591969;39;20025;-61
2021/08/02 04:59:53;;;;;;;11.27;6.97;;;;;;;11.11;100.00;101302.59;3591439;39;20029;-61
2021/08/02 05:02:19;;;;;;;14.57;7.03;;;;;;;11.18;100.00;101309.19;3592507;39;20282;-61
2021/08/02 05:04:46;;;;;;;13.65;7.85;;;;;;;11.23;100.00;101300.69;3592074;39;20037;-61
2021/08/02 05:07:12;;;;;;;14.00;6.85;;;;;;;11.29;100.00;101312.81;3594637;39;20038;-61
2021/08/02 05:09:38;;;;;;;13.20;7.60;;;;;;;11.35;100.00;101306.91;3592562;39;20047;-61
2021/08/02 05:12:06;;;;;;;16.70;8.35;;;;;;;11.38;100.00;101304.81;3592142;39;20286;-61
2021/08/02 05:14:32;;;;;;;16.50;7.90;;;;;;;11.47;100.00;101313.94;3592419;39;20046;-61
2021/08/02 05:17:00;;;;;;;14.23;7.07;;;;;;;11.61;100.00;101315.47;3592552;39;20031;-61
2021/08/02 05:19:26;;;;;;;14.57;8.10;;;;;;;11.62;100.00;101314.47;3592202;39;20067;-61
2021/08/02 05:21:53;;;;;;;12.73;7.60;;;;;;;11.77;100.00;101306.91;3589909;39;20047;-61
2021/08/02 05:24:19;;;;;;;16.05;8.43;;;;;;;11.94;100.00;101318.97;3593179;39;20035;-61
2021/08/02 05:26:45;;;;;;;11.35;8.00;;;;;;;11.99;100.00;101315.88;3590738;39;20045;-61
2021/08/02 05:29:12;;;;;;;20.63;8.68;;;;;;;11.99;100.00;101316.72;3592133;39;20040;-61
2021/08/02 05:31:38;;;;;;;14.80;7.65;;;;;;;12.09;100.00;101325.69;3594140;39;20387;-61
2021/08/02 05:34:06;;;;;;;10.25;7.22;;;;;;;12.06;100.00;101330.53;3592529;39;20043;-62
2021/08/02 05:36:32;;;;;;;17.17;8.55;;;;;;;12.18;100.00;101325.91;3592299;39;20048;-61
2021/08/02 05:38:59;;;;;;;16.65;7.50;;;;;;;12.36;100.00;101331.50;3591369;39;20044;-61
2021/08/02 05:41:25;;;;;;;14.10;7.25;;;;;;;12.40;100.00;101332.94;3593693;39;20036;-61
2021/08/02 05:43:52;;;;;;;12.25;7.57;;;;;;;12.52;100.00;101331.84;3589645;39;20042;-61
2021/08/02 05:46:18;;;;;;;11.07;6.70;;;;;;;12.62;100.00;101324.63;3593456;39;20032;-61
2021/08/02 05:48:45;;;;;;;9.73;6.00;;;;;;;12.79;100.00;101333.91;3589116;39;20409;-61
2021/08/02 05:51:13;;;;;;;9.60;5.57;;;;;;;12.91;100.00;101340.06;3594593;39;20041;-61
2021/08/02 05:53:40;;;;;;;10.68;5.95;;;;;;;13.09;100.00;101332.09;3593891;39;20040;-61
2021/08/02 05:56:07;;;;;;;11.38;5.22;;;;;;;13.25;100.00;101339.66;3593284;39;20069;-61
2021/08/02 05:58:33;;;;;;;11.35;5.57;;;;;;;13.40;100.00;101336.56;3592849;39;20499;-62
2021/08/02 06:00:59;;;;;;;12.07;5.30;;;;;;;13.40;100.00;101332.00;3593947;39;20028;-61
2021/08/02 06:03:26;;;;;;;9.93;5.10;;;;;;;13.47;100.00;101329.56;3592538;39;20044;-61
2021/08/02 06:05:52;;;;;;;6.80;4.78;;;;;;;13.57;100.00;101327.69;3590710;39;20036;-61
2021/08/02 06:08:20;;;;;;;10.23;4.97;;;;;;;13.62;100.00;101335.41;3591133;39;20408;-61
2021/08/02 06:10:47;;;;;;;7.07;4.70;;;;;;;13.71;100.00;101322.88;3591614;39;20405;-61
2021/08/02 06:13:13;;;;;;;9.60;4.75;;;;;;;13.84;100.00;101332.38;3593970;39;20032;-61
2021/08/02 06:15:40;;;;;;;10.77;5.30;;;;;;;13.97;100.00;101323.06;3590413;39;20028;-61
2021/08/02 06:18:06;;;;;;;8.15;4.15;;;;;;;13.93;100.00;101327.94;3591846;39;20043;-62
2021/08/02 06:20:33;;;;;;;10.02;4.50;;;;;;;13.92;100.00;101330.78;3593003;39;20036;-61
2021/08/02 06:22:59;;;;;;;6.35;4.07;;;;;;;13.92;100.00;101320.81;3660209;22;20060;-61
2021/08/02 06:25:27;;;;;;;8.63;4.35;;;;;;;14.10;100.00;101322.75;3581889;40;20640;-62
2021/08/02 06:27:54;;;;;;;7.82;4.43;;;;;;;14.26;100.00;101328.38;3584826;40;20051;-62
2021/08/02 06:30:20;;;;;;;8.57;3.80;;;;;;;14.46;100.00;101331.03;3583818;40;20063;-61
2021/08/02 06:32:47;;;;;;;5.97;2.95;;;;;;;14.68;100.00;101330.63;3582863;40;20049;-61
2021/08/02 06:35:13;;;;;;;5.40;3.15;;;;;;;14.76;100.00;101334.44;3582481;40;20127;-61
2021/08/02 06:37:40;;;;;;;9.02;3.08;;;;;;;14.70;100.00;101335.91;3581962;40;20021;-62
2021/08/02 06:40:09;;;;;;;7.78;2.90;;;;;;;14.95;100.00;101333.47;3584013;40;20048;-61
2021/08/02 06:42:37;;;;;;;5.07;2.85;;;;;;;15.28;100.00;101334.63;3581566;40;20039;-61
2021/08/02 06:45:05;;;;;;;5.05;2.50;;;;;;;15.52;100.00;101336.72;3583703;40;20050;-61
2021/08/02 06:47:31;;;;;;;6.75;3.08;;;;;;;15.28;100.00;101333.78;3580407;40;20044;-61
2021/08/02 06:49:58;;;;;;;5.55;2.45;;;;;;;15.37;100.00;101338.25;3583820;40;20041;-61
2021/08/02 06:52:24;;;;;;;4.60;2.13;;;;;;;15.37;100.00;101338.25;3579797;40;20072;-61
2021/08/02 06:54:51;;;;;;;5.50;2.40;;;;;;;15.46;100.00;101339.19;3585702;40;20027;-61
2021/08/02 06:57:18;;;;;;;4.95;2.35;;;;;;;15.53;100.00;101332.13;3581933;39;20345;-61
2021/08/02 06:59:46;;;;;;;6.97;1.98;;;;;;;15.75;100.00;101337.06;3583417;40;20039;-61
2021/08/02 07:02:13;;;;;;;7.85;2.58;;;;;;;15.80;100.00;101338.47;3584176;40;20033;-61
2021/08/02 07:04:39;;;;;;;6.63;2.28;;;;;;;15.86;100.00;101332.44;3583541;40;20042;-61
2021/08/02 07:07:06;;;;;;;8.40;2.42;;;;;;;16.14;100.00;101334.97;3583081;40;20032;-61
2021/08/02 07:09:32;;;;;;;7.05;2.40;;;;;;;16.00;100.00;101339.97;3582455;40;20041;-61
2021/08/02 07:11:59;;;;;;;6.32;2.28;;;;;;;15.96;100.00;101338.59;3584706;39;20039;-61
2021/08/02 07:14:25;;;;;;;7.25;2.22;;;;;;;16.34;100.00;101341.88;3582125;39;20063;-62
2021/08/02 07:16:53;;;;;;;8.68;2.35;;;;;;;16.64;100.00;101339.63;3582561;40;20034;-61
2021/08/02 07:19:19;;;;;;;7.47;2.30;;;;;;;16.66;100.00;101342.16;3585046;39;20046;-61
2021/08/02 07:21:46;;;;;;;6.50;2.40;;;;;;;16.48;100.00;101337.69;3586346;40;20044;-61
2021/08/02 07:24:12;;;;;;;6.20;2.30;;;;;;;16.75;100.00;101349.31;3586147;40;20060;-61
2021/08/02 07:26:39;;;;;;;7.88;2.15;;;;;;;16.89;100.00;101350.59;3583856;40;20318;-61
2021/08/02 07:29:05;;;;;;;7.13;2.00;;;;;;;16.58;100.00;101341.13;3581482;40;20048;-61
2021/08/02 07:31:32;;;;;;;7.15;2.00;;;;;;;16.61;100.00;101337.22;3583682;40;20051;-61
2021/08/02 07:33:59;;;;;;;7.45;2.00;;;;;;;16.43;100.00;101340.88;3582691;40;20059;-61
2021/08/02 07:36:26;;;;;;;5.75;2.20;;;;;;;16.42;100.00;101338.34;3582298;40;20060;-61
2021/08/02 07:38:52;;;;;;;5.68;1.90;;;;;;;16.89;100.00;101339.72;3585461;40;20035;-61
2021/08/02 07:41:19;;;;;;;5.22;1.95;;;;;;;16.93;100.00;101341.06;3580994;40;20470;-61
2021/08/02 07:43:45;;;;;;;6.22;2.33;;;;;;;16.66;100.00;101340.28;3581958;40;20423;-61
2021/08/02 07:46:13;;;;;;;6.60;1.80;;;;;;;16.87;100.00;101339.91;3582593;39;20384;-61
2021/08/02 07:48:39;;;;;;;5.13;1.73;;;;;;;17.22;100.00;101342.50;3583074;40;20049;-62
2021/08/02 07:51:07;;;;;;;9.25;2.03;;;;;;;17.35;100.00;101345.56;3584941;40;20036;-61
2021/08/02 07:53:34;;;;;;;5.78;1.80;;;;;;;17.42;100.00;101346.59;3584059;39;20281;-62
2021/08/02 07:56:00;;;;;;;7.50;2.40;;;;;;;17.26;100.00;101352.03;3582482;40;20302;-62
2021/08/02 07:58:27;;;;;;;7.40;2.28;;;;;;;17.04;100.00;101348.09;3582765;40;20055;-62
2021/08/02 08:00:53;;;;;;;4.35;1.88;;;;;;;17.35;100.00;101351.03;3581252;39;20053;-60
2021/08/02 08:03:20;;;;;;;7.15;1.88;;;;;;;17.25;100.00;101344.88;3581383;39;20122;-60
2021/08/02 08:05:46;;;;;;;7.30;2.20;;;;;;;17.23;100.00;101347.78;3579935;40;20047;-61
2021/08/02 08:08:14;;;;;;;7.97;2.10;;;;;;;17.54;100.00;101355.28;3582632;39;20030;-60
2021/08/02 08:10:40;;;;;;;4.63;1.77;;;;;;;17.54;100.00;101355.28;3582320;39;20045;-61
2021/08/02 08:13:07;;;;;;;9.32;2.08;;;;;;;17.86;100.00;101353.56;3584661;40;20046;-61
2021/08/02 08:15:34;;;;;;;7.03;1.98;;;;;;;17.97;100.00;101355.09;3583168;39;20149;-60
2021/08/02 08:18:01;;;;;;;3.97;2.00;;;;;;;17.96;100.00;101358.84;3580571;39;20035;-61
2021/08/02 08:20:27;;;;;;;4.10;1.80;;;;;;;18.28;100.00;101359.81;3581988;40;20064;-61
2021/08/02 08:22:54;;;;;;;7.95;2.00;;;;;;;18.12;100.00;101358.81;3582112;40;20047;-61
2021/08/02 08:25:22;;;;;;;4.85;1.80;;;;;;;18.16;100.00;101354.72;3582688;40;20056;-61
2021/08/02 08:27:50;;;;;;;5.18;1.70;;;;;;;18.37;100.00;101356.03;3582901;39;20040;-60
2021/08/02 08:30:18;;;;;;;6.82;2.00;;;;;;;18.33;100.00;101368.28;3582662;39;20078;-61
2021/08/02 08:32:45;;;;;;;7.25;1.83;;;;;;;17.93;100.00;101353.75;3583138;40;20029;-60
2021/08/02 08:35:13;;;;;;;5.22;1.95;;;;;;;17.58;100.00;101356.66;3586240;40;20034;-60
2021/08/02 08:37:40;;;;;;;6.57;1.50;;;;;;;18.21;100.00;101360.50;3583072;39;20029;-60
2021/08/02 08:40:08;;;;;;;5.28;1.90;;;;;;;18.44;100.00;101357.03;3582863;40;20034;-61
2021/08/02 08:42:38;;;;;;;6.40;2.30;;;;;;;18.17;100.00;101350.97;3580909;40;20056;-61
2021/08/02 08:45:05;;;;;;;5.18;1.63;;;;;;;18.32;100.00;101355.72;3583111;40;20043;-61
2021/08/02 08:47:34;;;;;;;5.82;1.98;;;;;;;18.38;100.00;101363.19;3581458;39;20318;-61
2021/08/02 08:50:02;;;;;;;7.30;1.60;;;;;;;18.43;100.00;101355.31;3584005;39;20039;-61
2021/08/02 08:52:28;;;;;;;3.20;1.48;;;;;;;18.46;100.00;101355.00;3667562;22;20059;-60
2021/08/02 08:54:55;;;;;;;4.63;1.58;;;;;;;18.74;100.00;101351.78;3590523;39;20379;-61
2021/08/02 08:57:21;;;;;;;5.72;1.65;;;;;;;18.43;100.00;101349.88;3591831;39;20283;-61
2021/08/02 08:59:51;;;;;;;5.10;1.70;;;;;;;18.65;100.00;101348.25;3591254;39;20057;-61
2021/08/02 09:02:24;;;;;;;3.33;1.38;;;;;;;18.82;100.00;101351.75;3593607;39;20047;-62
2021/08/02 09:04:52;;;;;;;6.05;1.60;;;;;;;18.66;100.00;101349.94;3591459;39;20043;-61
2021/08/02 09:07:20;;;;;;;5.05;1.35;;;;;;;19.12;100.00;101349.22;3592079;39;20043;-61
2021/08/02 09:09:47;;;;;;;5.68;1.20;;;;;;;18.68;100.00;101356.09;3593085;39;20390;-61
2021/08/02 09:12:16;;;;;;;3.30;1.20;;;;;;;18.71;100.00;101354.88;3593491;39;20040;-61
2021/08/02 09:58:48;;;;;;;4.45;1.38;;;;;;;19.69;100.00;101366.19;3607575;22;20281;-62
2021/08/02 10:01:15;;;;;;;2.78;1.15;;;;;;;19.83;100.00;101362.69;3613701;39;20047;-62
2021/08/02 10:03:43;;;;;;;4.78;1.50;;;;;;;19.30;100.00;101367.19;3615200;39;20863;-62
2021/08/02 10:06:10;;;;;;;3.03;1.15;;;;;;;18.90;100.00;101364.53;3613111;39;20409;-62
2021/08/02 10:08:38;;;;;;;2.42;1.48;;;;;;;18.76;100.00;101359.78;3615128;39;20045;-62
2021/08/02 10:11:05;;;;;;;4.03;1.35;;;;;;;18.59;100.00;101365.31;3613671;39;20131;-62
2021/08/02 10:13:33;;;;;;;3.17;1.10;;;;;;;18.99;100.00;101357.13;3608978;39;20042;-62
2021/08/02 10:16:04;;;;;;;5.03;1.50;;;;;;;18.78;100.00;101358.59;3614382;39;20061;-62
2021/08/02 10:18:32;;;;;;;2.72;1.20;;;;;;;18.76;100.00;101366.09;3606512;39;20054;-62
2021/08/02 10:21:06;;;;;;;4.53;1.40;;;;;;;18.75;100.00;101367.13;3609920;39;20045;-62
2021/08/02 10:23:33;;;;;;;5.70;1.33;;;;;;;18.93;100.00;101360.59;3605464;39;20039;-62
2021/08/02 10:26:00;;;;;;;3.42;1.58;;;;;;;19.61;100.00;101357.03;3608471;39;20364;-62
2021/08/02 10:28:27;;;;;;;4.35;1.30;;;;;;;20.15;100.00;101355.19;3612289;39;20077;-62
2021/08/02 10:31:03;;;;;;;3.88;1.40;;;;;;;20.30;100.00;101364.25;3614295;39;20028;-62
2021/08/02 10:33:34;;;;;;;4.63;1.45;;;;;;;20.83;100.00;101361.41;3613768;39;20302;-62
2021/08/02 10:36:12;;;;;;;4.72;1.45;;;;;;;21.12;100.00;101354.16;3610565;39;20031;-62
2021/08/02 10:38:42;;;;;;;3.53;1.30;;;;;;;21.20;100.00;101353.19;3612729;39;20036;-62
2021/08/02 10:43:41;;;;;;;3.70;1.50;;;;;;;20.04;100.00;101363.88;3679847;22;19932;-62
2021/08/02 10:46:21;;;;;;;3.75;1.48;;;;;;;19.85;100.00;101363.34;3658415;22;20054;-62
2021/08/02 10:48:49;;;;;;;4.07;1.42;;;;;;;19.51;100.00;101364.63;3580958;40;20331;-62
2021/08/02 10:51:17;;;;;;;3.63;1.20;;;;;;;20.10;100.00;101368.56;3581658;40;20024;-63
2021/08/02 10:53:45;;;;;;;4.35;1.55;;;;;;;20.23;100.00;101357.84;3581734;40;20396;-62
2021/08/02 10:56:11;;;;;;;2.35;1.15;;;;;;;20.65;100.00;101358.19;3583245;40;20028;-62
2021/08/02 10:58:43;;;;;;;4.28;1.15;;;;;;;20.76;100.00;101352.28;3580906;40;20041;-62
2021/08/02 11:01:12;;;;;;;3.88;1.27;;;;;;;21.39;100.00;101351.69;3583705;40;20298;-62
2021/08/02 11:03:42;;;;;;;3.50;1.20;;;;;;;21.55;100.00;101352.50;3581901;40;20053;-62
2021/08/02 11:06:13;;;;;;;3.78;1.15;;;;;;;21.69;100.00;101352.41;3581148;40;20055;-62
2021/08/02 11:08:48;;;;;;;2.97;1.08;;;;;;;21.64;100.00;101354.91;3584441;40;20041;-62
2021/08/02 11:11:20;;;;;;;2.55;1.00;;;;;;;21.38;100.00;101349.13;3581183;40;20052;-62
2021/08/02 11:13:47;;;;;;;2.75;0.90;;;;;;;21.49;100.00;101352.19;3582036;40;20036;-62
2021/08/02 11:16:13;;;;;;;2.85;1.08;;;;;;;20.86;100.00;101349.22;3582958;40;20335;-62
2021/08/02 11:18:45;;;;;;;3.88;1.00;;;;;;;20.52;100.00;101345.19;3581474;40;20052;-62
2021/08/02 11:21:22;;;;;;;2.13;1.20;;;;;;;21.43;100.00;101346.66;3583754;40;20284;-62
2021/08/02 11:23:48;;;;;;;2.60;1.00;;;;;;;21.84;100.00;101349.56;3581275;40;20042;-62
2021/08/02 11:26:15;;;;;;;3.53;1.27;;;;;;;21.42;100.00;101358.66;3579368;40;20037;-62
2021/08/02 11:28:43;;;;;;;3.25;1.33;;;;;;;20.56;100.00;101357.44;3581971;40;20052;-62
2021/08/02 11:31:10;;;;;;;3.55;1.23;;;;;;;20.78;100.00;101358.38;3584796;40;20045;-61
2021/08/02 11:33:37;;;;;;;4.75;1.17;;;;;;;21.21;100.00;101354.88;3582233;40;20447;-61
2021/08/02 11:36:06;;;;;;;3.58;1.20;;;;;;;20.82;100.00;101361.59;3581559;40;20056;-62
2021/08/02 11:38:37;;;;;;;4.10;1.20;;;;;;;20.83;100.00;101357.81;3581893;40;20076;-61
2021/08/02 11:41:04;;;;;;;3.53;1.10;;;;;;;20.76;100.00;101359.59;3582780;40;20062;-61
2021/08/02 11:43:31;;;;;;;4.78;1.42;;;;;;;21.45;100.00;101367.34;3583342;40;20039;-61
2021/08/02 11:45:59;;;;;;;1.73;1.00;;;;;;;21.67;100.00;101360.00;3580546;40;20069;-61
2021/08/02 11:48:26;;;;;;;6.63;1.30;;;;;;;22.14;99.99;101363.09;3581563;40;20043;-61
2021/08/02 11:50:52;;;;;;;3.90;1.15;;;;;;;22.46;100.00;101358.03;3581396;40;20647;-61
2021/08/02 11:53:20;;;;;;;3.15;1.00;;;;;;;21.39;100.00;101359.88;3583405;40;20392;-61
2021/08/02 11:55:50;;;;;;;4.30;1.40;;;;;;;21.11;100.00;101376.22;3582568;40;20055;-61
2021/08/02 11:58:17;;;;;;;2.28;1.10;;;;;;;20.62;100.00;101373.09;3581778;40;20032;-61
2021/08/02 12:00:43;;;;;;;2.35;1.10;;;;;;;20.24;100.00;101375.94;3582714;40;20053;-61
2021/08/02 12:03:12;;;;;;;1.85;1.10;;;;;;;20.33;100.00;101373.09;3582711;40;20030;-61
2021/08/02 12:05:40;;;;;;;;;;;;;;;20.33;100.00;101376.69;3585482;40;20060;-62
2021/08/02 12:08:12;;;;;;;3.85;1.42;;;;;;;20.13;100.00;101370.94;3580922;40;19975;-62
2021/08/02 12:10:41;;;;;;;3.33;1.40;;;;;;;20.17;100.00;101371.41;3584656;40;20386;-62
2021/08/02 12:13:11;;;;;;;5.72;1.10;;;;;;;20.17;100.00;101375.00;3583873;40;20037;-62